BAW98T CYYZ-EGLL
Flight info
| Callsign | BAW98T |
|---|---|
| Flight time | N/A |
| Altitude | 41000 |
| Route | VERDO7 IPTOS Q921 AGLUK DCT BAREE N581A TUDEP/M084F400 NATT NETKI/N0485F410 DCT BOFUM Q37 MALUD Q38 NUGRA |
| Aircraft | B789/H-SADE1E2E3FGHIJ1J3J4J5J6LM1M2OP2RWXYZ/LB1D1G1 |
Departure
| Time | 2026-05-05 15:38 |
|---|---|
| Airport | Toronto Pearson International Airport (CYYZ) |
Arrival
| Time | N/A |
|---|---|
| Airport | London Heathrow Airport (EGLL) |
| Time | Latitude | Longitude | Altitude | Speed | Heading |
|---|---|---|---|---|---|
| 2026-05-05 15:11 | 43.68169 | -79.62042 | 572 ft | 0 kts | 32° |
| 2026-05-05 15:14 | 43.68168 | -79.62042 | 576 ft | 0 kts | 32° |
| 2026-05-05 15:27 | 43.68159 | -79.62050 | 574 ft | 4 kts | 32° |
| 2026-05-05 15:28 | 43.68136 | -79.62070 | 574 ft | 4 kts | 32° |
| 2026-05-05 15:28 | 43.68117 | -79.62086 | 571 ft | 4 kts | 20° |
| 2026-05-05 15:28 | 43.68095 | -79.62088 | 567 ft | 4 kts | 326° |
| 2026-05-05 15:28 | 43.68076 | -79.62063 | 574 ft | 10 kts | 315° |
| 2026-05-05 15:29 | 43.68073 | -79.62060 | 573 ft | 57 kts | 316° |
| 2026-05-05 15:29 | 43.68073 | -79.62059 | 567 ft | 0 kts | 316° |
| 2026-05-05 15:31 | 43.68076 | -79.62064 | 574 ft | 3 kts | 316° |
| 2026-05-05 15:31 | 43.68105 | -79.62101 | 576 ft | 8 kts | 316° |
| 2026-05-05 15:31 | 43.68155 | -79.62166 | 570 ft | 10 kts | 317° |
| 2026-05-05 15:32 | 43.68207 | -79.62233 | 570 ft | 10 kts | 316° |
| 2026-05-05 15:32 | 43.68259 | -79.62301 | 576 ft | 10 kts | 316° |
| 2026-05-05 15:32 | 43.68276 | -79.62373 | 575 ft | 6 kts | 253° |
| 2026-05-05 15:32 | 43.68265 | -79.62434 | 567 ft | 7 kts | 267° |
| 2026-05-05 15:33 | 43.68291 | -79.62501 | 568 ft | 11 kts | 309° |
| 2026-05-05 15:33 | 43.68359 | -79.62592 | 570 ft | 15 kts | 317° |
| 2026-05-05 15:33 | 43.68438 | -79.62696 | 574 ft | 16 kts | 315° |
| 2026-05-05 15:33 | 43.68524 | -79.62809 | 573 ft | 18 kts | 316° |
| 2026-05-05 15:34 | 43.68616 | -79.62929 | 573 ft | 19 kts | 317° |
| 2026-05-05 15:34 | 43.68713 | -79.63054 | 572 ft | 19 kts | 316° |
| 2026-05-05 15:34 | 43.68813 | -79.63180 | 571 ft | 20 kts | 319° |
| 2026-05-05 15:34 | 43.68912 | -79.63313 | 572 ft | 20 kts | 315° |
| 2026-05-05 15:35 | 43.69010 | -79.63442 | 573 ft | 19 kts | 316° |
| 2026-05-05 15:35 | 43.69096 | -79.63524 | 572 ft | 7 kts | 3° |
| 2026-05-05 15:35 | 43.69139 | -79.63486 | 576 ft | 10 kts | 38° |
| 2026-05-05 15:35 | 43.69218 | -79.63429 | 573 ft | 16 kts | 16° |
| 2026-05-05 15:36 | 43.69338 | -79.63391 | 575 ft | 20 kts | 31° |
| 2026-05-05 15:36 | 43.69451 | -79.63325 | 574 ft | 16 kts | 348° |
| 2026-05-05 15:36 | 43.69476 | -79.63411 | 578 ft | 8 kts | 248° |
| 2026-05-05 15:36 | 43.69454 | -79.63449 | 577 ft | 0 kts | 226° |
| 2026-05-05 15:37 | 43.69334 | -79.63628 | 571 ft | 57 kts | 226° |
| 2026-05-05 15:37 | 43.68914 | -79.64236 | 576 ft | 116 kts | 226° |
| 2026-05-05 15:37 | 43.68234 | -79.65218 | 602 ft | 162 kts | 226° |
| 2026-05-05 15:38 | 43.67478 | -79.66248 | 1552 ft | 141 kts | 227° |
| 2026-05-05 15:38 | 43.66757 | -79.67264 | 2101 ft | 160 kts | 232° |
| 2026-05-05 15:38 | 43.66180 | -79.68725 | 2387 ft | 189 kts | 248° |
| 2026-05-05 15:38 | 43.65196 | -79.70176 | 2628 ft | 238 kts | 207° |
| 2026-05-05 15:39 | 43.63491 | -79.70349 | 3393 ft | 264 kts | 165° |
| 2026-05-05 15:39 | 43.61948 | -79.68964 | 4686 ft | 270 kts | 146° |
| 2026-05-05 15:39 | 43.60389 | -79.67491 | 5591 ft | 273 kts | 156° |
| 2026-05-05 15:39 | 43.58749 | -79.66169 | 6619 ft | 274 kts | 157° |
| 2026-05-05 15:40 | 43.57107 | -79.64769 | 7512 ft | 280 kts | 156° |
| 2026-05-05 15:40 | 43.55462 | -79.63298 | 8495 ft | 283 kts | 156° |
| 2026-05-05 15:40 | 43.53800 | -79.61822 | 9496 ft | 285 kts | 156° |
| 2026-05-05 15:40 | 43.52309 | -79.59892 | 10303 ft | 308 kts | 135° |
| 2026-05-05 15:41 | 43.51323 | -79.57072 | 10569 ft | 351 kts | 109° |
| 2026-05-05 15:41 | 43.51235 | -79.53556 | 10843 ft | 386 kts | 81° |
| 2026-05-05 15:41 | 43.51873 | -79.49943 | 11712 ft | 389 kts | 76° |
| 2026-05-05 15:41 | 43.52628 | -79.46338 | 12505 ft | 395 kts | 75° |
| 2026-05-05 15:42 | 43.53427 | -79.42684 | 13306 ft | 401 kts | 69° |
| 2026-05-05 15:42 | 43.54645 | -79.39201 | 13997 ft | 406 kts | 63° |
| 2026-05-05 15:42 | 43.55903 | -79.35697 | 14717 ft | 410 kts | 64° |
| 2026-05-05 15:42 | 43.57185 | -79.32163 | 15410 ft | 414 kts | 63° |
| 2026-05-05 15:43 | 43.58474 | -79.28637 | 16100 ft | 419 kts | 63° |
| 2026-05-05 15:43 | 43.59787 | -79.25025 | 16813 ft | 423 kts | 64° |
| 2026-05-05 15:43 | 43.61108 | -79.21368 | 17468 ft | 428 kts | 64° |
| 2026-05-05 15:43 | 43.62442 | -79.17673 | 18117 ft | 432 kts | 64° |
| 2026-05-05 15:44 | 43.63792 | -79.13941 | 18694 ft | 436 kts | 63° |
| 2026-05-05 15:44 | 43.65152 | -79.10173 | 19270 ft | 440 kts | 63° |
| 2026-05-05 15:44 | 43.66512 | -79.06397 | 19822 ft | 444 kts | 63° |
| 2026-05-05 15:44 | 43.67893 | -79.02557 | 20362 ft | 448 kts | 63° |
| 2026-05-05 15:45 | 43.69286 | -78.98683 | 20902 ft | 452 kts | 63° |
| 2026-05-05 15:45 | 43.70691 | -78.94768 | 21436 ft | 456 kts | 62° |
| 2026-05-05 15:45 | 43.72103 | -78.90826 | 21953 ft | 459 kts | 62° |
| 2026-05-05 15:45 | 43.73527 | -78.86846 | 22453 ft | 463 kts | 62° |
| 2026-05-05 15:46 | 43.74958 | -78.82838 | 22942 ft | 467 kts | 62° |
| 2026-05-05 15:46 | 43.76401 | -78.78796 | 23396 ft | 470 kts | 62° |
| 2026-05-05 15:46 | 43.77829 | -78.74781 | 23820 ft | 472 kts | 62° |
| 2026-05-05 15:46 | 43.79255 | -78.70672 | 24218 ft | 475 kts | 63° |
| 2026-05-05 15:47 | 43.80661 | -78.66553 | 25015 ft | 462 kts | 63° |
| 2026-05-05 15:47 | 43.81565 | -78.63920 | 25712 ft | 455 kts | 62° |
| 2026-05-05 15:47 | 43.83366 | -78.58742 | 26799 ft | 444 kts | 62° |
| 2026-05-05 15:47 | 43.84718 | -78.54846 | 27100 ft | 450 kts | 62° |
| 2026-05-05 15:48 | 43.86060 | -78.50933 | 27716 ft | 449 kts | 62° |
| 2026-05-05 15:48 | 43.87399 | -78.47028 | 28287 ft | 448 kts | 62° |
| 2026-05-05 15:48 | 43.88739 | -78.43132 | 28871 ft | 447 kts | 62° |
| 2026-05-05 15:48 | 43.90077 | -78.39240 | 29453 ft | 447 kts | 62° |
| 2026-05-05 15:49 | 43.91374 | -78.35443 | 30649 ft | 422 kts | 62° |
| 2026-05-05 15:49 | 43.92609 | -78.31822 | 31542 ft | 413 kts | 62° |
| 2026-05-05 15:49 | 43.93844 | -78.28220 | 31979 ft | 413 kts | 62° |
| 2026-05-05 15:49 | 43.95050 | -78.24688 | 32987 ft | 395 kts | 63° |
| 2026-05-05 15:50 | 43.96239 | -78.21197 | 33042 ft | 409 kts | 63° |
| 2026-05-05 15:50 | 43.97461 | -78.17609 | 33400 ft | 410 kts | 63° |
| 2026-05-05 15:50 | 43.98659 | -78.14079 | 33883 ft | 409 kts | 63° |
| 2026-05-05 15:50 | 43.99888 | -78.10457 | 34266 ft | 409 kts | 63° |
| 2026-05-05 15:51 | 44.01101 | -78.06879 | 34622 ft | 410 kts | 63° |
| 2026-05-05 15:51 | 44.02300 | -78.03338 | 34969 ft | 411 kts | 63° |
| 2026-05-05 15:51 | 44.03535 | -77.99685 | 35011 ft | 421 kts | 63° |
| 2026-05-05 15:51 | 44.04781 | -77.95992 | 35376 ft | 421 kts | 64° |
| 2026-05-05 15:52 | 44.06026 | -77.92297 | 35713 ft | 421 kts | 64° |
| 2026-05-05 15:52 | 44.07269 | -77.88604 | 36060 ft | 422 kts | 64° |
| 2026-05-05 15:52 | 44.08511 | -77.84910 | 36393 ft | 422 kts | 64° |
| 2026-05-05 15:52 | 44.09751 | -77.81214 | 36727 ft | 422 kts | 64° |
| 2026-05-05 15:53 | 44.10996 | -77.77502 | 36878 ft | 428 kts | 64° |
| 2026-05-05 15:53 | 44.13562 | -77.69830 | 36982 ft | 444 kts | 64° |
| 2026-05-05 15:53 | 44.14849 | -77.65974 | 37314 ft | 444 kts | 64° |
| 2026-05-05 15:54 | 44.16149 | -77.62073 | 37642 ft | 445 kts | 64° |
| 2026-05-05 15:54 | 44.17451 | -77.58162 | 37986 ft | 445 kts | 64° |
| 2026-05-05 15:54 | 44.18750 | -77.54252 | 38285 ft | 445 kts | 64° |
| 2026-05-05 15:54 | 44.20120 | -77.50377 | 38517 ft | 444 kts | 53° |
| 2026-05-05 15:55 | 44.21960 | -77.46955 | 38739 ft | 441 kts | 49° |
| 2026-05-05 15:55 | 44.23868 | -77.43606 | 38952 ft | 441 kts | 48° |
| 2026-05-05 15:55 | 44.25794 | -77.40286 | 39204 ft | 440 kts | 48° |
| 2026-05-05 15:55 | 44.27720 | -77.36950 | 39442 ft | 439 kts | 48° |
| 2026-05-05 15:56 | 44.29631 | -77.33603 | 39527 ft | 444 kts | 49° |
| 2026-05-05 15:56 | 44.33523 | -77.26789 | 39792 ft | 449 kts | 48° |
| 2026-05-05 15:56 | 44.35469 | -77.23386 | 40045 ft | 449 kts | 48° |
| 2026-05-05 15:57 | 44.37413 | -77.19976 | 40281 ft | 448 kts | 49° |
| 2026-05-05 15:57 | 44.39332 | -77.16606 | 40505 ft | 448 kts | 49° |
| 2026-05-05 15:57 | 44.41273 | -77.13194 | 40681 ft | 449 kts | 49° |
| 2026-05-05 15:58 | 44.45150 | -77.06367 | 40649 ft | 441 kts | 49° |
| 2026-05-05 15:58 | 44.48910 | -76.99729 | 40638 ft | 429 kts | 49° |
| 2026-05-05 15:59 | 44.52615 | -76.93182 | 40657 ft | 431 kts | 49° |
| 2026-05-05 15:59 | 44.56374 | -76.86516 | 40672 ft | 440 kts | 49° |
| 2026-05-05 16:00 | 44.60183 | -76.79745 | 40664 ft | 442 kts | 49° |
| 2026-05-05 16:00 | 44.63920 | -76.73089 | 40662 ft | 440 kts | 49° |
| 2026-05-05 16:01 | 44.67697 | -76.66345 | 40655 ft | 438 kts | 49° |
| 2026-05-05 16:01 | 44.71438 | -76.59651 | 40654 ft | 438 kts | 49° |
| 2026-05-05 16:02 | 44.75209 | -76.52886 | 40652 ft | 440 kts | 49° |
| 2026-05-05 16:02 | 44.79019 | -76.46037 | 40648 ft | 448 kts | 49° |
| 2026-05-05 16:03 | 44.82863 | -76.39105 | 40650 ft | 448 kts | 49° |
| 2026-05-05 16:03 | 44.86694 | -76.32185 | 40647 ft | 446 kts | 49° |
| 2026-05-05 16:04 | 44.90468 | -76.25348 | 40626 ft | 444 kts | 49° |
| 2026-05-05 16:04 | 44.92146 | -76.21698 | 40645 ft | 443 kts | 66° |
| 2026-05-05 16:04 | 44.93294 | -76.17648 | 40622 ft | 447 kts | 70° |
| 2026-05-05 16:05 | 44.95305 | -76.09305 | 40636 ft | 449 kts | 71° |
| 2026-05-05 16:05 | 44.97342 | -76.00981 | 40634 ft | 447 kts | 70° |
| 2026-05-05 16:06 | 44.99357 | -75.92687 | 40626 ft | 445 kts | 71° |
| 2026-05-05 16:06 | 45.01354 | -75.84427 | 40625 ft | 445 kts | 71° |
| 2026-05-05 16:07 | 45.03351 | -75.76155 | 40626 ft | 444 kts | 71° |
| 2026-05-05 16:07 | 45.05335 | -75.67888 | 40623 ft | 443 kts | 71° |
| 2026-05-05 16:08 | 45.06978 | -75.61029 | 40617 ft | 443 kts | 71° |
| 2026-05-05 16:08 | 45.09265 | -75.51439 | 40617 ft | 442 kts | 71° |
| 2026-05-05 16:09 | 45.10910 | -75.44519 | 40620 ft | 442 kts | 71° |
| 2026-05-05 16:09 | 45.12866 | -75.36260 | 40622 ft | 442 kts | 71° |
| 2026-05-05 16:10 | 45.14800 | -75.28063 | 40610 ft | 441 kts | 71° |